Terminal Aerodrome Forecast
Issued by NWS

Home | Current Version | Previous Version | Text Only | Print | Product List | Glossary On
Versions: 1 2 3 4 5 6 7 8 9 10 11 12 13 14 15 16 17 18 19 20 21
000
FTUS44 KMOB 210529
TAFBFM
TAF
KBFM 210529Z 2106/2206 13006KT P6SM SCT050 BKN060 BKN070
     FM211200 12008KT 4SM -RA BR OVC007
     FM212100 23007KT P6SM OVC007
      TEMPO 2121/2124 2SM -RA BR OVC007
     FM220200 VRB04KT 4SM BR OVC007=

USA.gov is the U.S. government's official web portal to all federal, state and local government web resources and services.